sensor_id;sensor_type;location;lat;lon;timestamp;P1;durP1;ratioP1;P2;durP2;ratioP2
68870;SDS011;55906;52.278;6.808;2023-03-31T00:00:09;13.32;;;4.03;;
68870;SDS011;55906;52.278;6.808;2023-03-31T00:02:39;11.27;;;4.22;;
68870;SDS011;55906;52.278;6.808;2023-03-31T00:05:06;12.13;;;4.28;;
68870;SDS011;55906;52.278;6.808;2023-03-31T00:07:33;13.93;;;4.38;;
68870;SDS011;55906;52.278;6.808;2023-03-31T00:10:02;10.37;;;4.00;;
68870;SDS011;55906;52.278;6.808;2023-03-31T00:12:30;8.48;;;4.10;;
68870;SDS011;55906;52.278;6.808;2023-03-31T00:14:57;9.02;;;4.28;;
68870;SDS011;55906;52.278;6.808;2023-03-31T00:17:24;10.05;;;4.10;;
68870;SDS011;55906;52.278;6.808;2023-03-31T00:19:50;10.50;;;3.90;;
68870;SDS011;55906;52.278;6.808;2023-03-31T00:22:18;10.23;;;4.60;;
68870;SDS011;55906;52.278;6.808;2023-03-31T00:24:46;9.60;;;3.97;;
68870;SDS011;55906;52.278;6.808;2023-03-31T00:27:13;9.63;;;4.38;;
68870;SDS011;55906;52.278;6.808;2023-03-31T00:29:41;12.15;;;4.13;;
68870;SDS011;55906;52.278;6.808;2023-03-31T00:32:09;8.82;;;4.18;;
68870;SDS011;55906;52.278;6.808;2023-03-31T00:34:38;10.60;;;3.77;;
68870;SDS011;55906;52.278;6.808;2023-03-31T00:37:05;14.10;;;4.20;;
68870;SDS011;55906;52.278;6.808;2023-03-31T00:39:34;8.48;;;4.00;;
68870;SDS011;55906;52.278;6.808;2023-03-31T00:42:02;9.95;;;4.15;;
68870;SDS011;55906;52.278;6.808;2023-03-31T00:44:30;12.23;;;4.40;;
68870;SDS011;55906;52.278;6.808;2023-03-31T00:47:00;9.97;;;5.07;;
68870;SDS011;55906;52.278;6.808;2023-03-31T00:49:32;9.93;;;4.03;;
68870;SDS011;55906;52.278;6.808;2023-03-31T00:52:01;9.45;;;4.47;;
68870;SDS011;55906;52.278;6.808;2023-03-31T00:54:31;10.55;;;3.88;;
68870;SDS011;55906;52.278;6.808;2023-03-31T00:57:00;11.73;;;4.47;;
68870;SDS011;55906;52.278;6.808;2023-03-31T00:59:31;11.23;;;4.30;;
68870;SDS011;55906;52.278;6.808;2023-03-31T01:02:03;8.90;;;4.10;;
68870;SDS011;55906;52.278;6.808;2023-03-31T01:04:31;12.63;;;4.20;;
68870;SDS011;55906;52.278;6.808;2023-03-31T01:07:02;10.77;;;4.20;;
68870;SDS011;55906;52.278;6.808;2023-03-31T01:09:36;10.07;;;4.28;;
68870;SDS011;55906;52.278;6.808;2023-03-31T01:12:06;10.43;;;4.23;;
68870;SDS011;55906;52.278;6.808;2023-03-31T01:14:34;10.77;;;4.57;;
68870;SDS011;55906;52.278;6.808;2023-03-31T01:17:01;11.48;;;4.32;;
68870;SDS011;55906;52.278;6.808;2023-03-31T01:19:34;13.95;;;4.47;;
68870;SDS011;55906;52.278;6.808;2023-03-31T01:22:27;11.38;;;5.35;;
68870;SDS011;55906;52.278;6.808;2023-03-31T01:25:19;9.53;;;4.17;;
68870;SDS011;55906;52.278;6.808;2023-03-31T01:40:24;10.23;;;3.97;;
68870;SDS011;55906;52.278;6.808;2023-03-31T01:43:01;8.65;;;4.22;;
68870;SDS011;55906;52.278;6.808;2023-03-31T01:45:38;7.68;;;3.65;;
68870;SDS011;55906;52.278;6.808;2023-03-31T01:48:13;11.32;;;4.18;;
68870;SDS011;55906;52.278;6.808;2023-03-31T01:50:44;11.27;;;4.63;;
68870;SDS011;55906;52.278;6.808;2023-03-31T01:53:15;7.63;;;4.83;;
68870;SDS011;55906;52.278;6.808;2023-03-31T01:55:49;10.27;;;5.03;;
68870;SDS011;55906;52.278;6.808;2023-03-31T01:58:24;13.48;;;4.47;;
68870;SDS011;55906;52.278;6.808;2023-03-31T02:00:57;9.60;;;4.43;;
68870;SDS011;55906;52.278;6.808;2023-03-31T02:03:28;10.82;;;5.13;;
68870;SDS011;55906;52.278;6.808;2023-03-31T02:06:01;6.57;;;3.80;;
68870;SDS011;55906;52.278;6.808;2023-03-31T02:08:33;7.60;;;3.92;;
68870;SDS011;55906;52.278;6.808;2023-03-31T02:11:05;10.65;;;3.90;;
68870;SDS011;55906;52.278;6.808;2023-03-31T02:13:32;10.00;;;3.90;;
68870;SDS011;55906;52.278;6.808;2023-03-31T02:16:03;9.07;;;3.95;;
68870;SDS011;55906;52.278;6.808;2023-03-31T02:18:33;8.37;;;3.90;;
68870;SDS011;55906;52.278;6.808;2023-03-31T02:21:02;9.88;;;4.05;;
68870;SDS011;55906;52.278;6.808;2023-03-31T02:23:32;9.45;;;3.85;;
68870;SDS011;55906;52.278;6.808;2023-03-31T02:26:03;9.23;;;3.78;;
68870;SDS011;55906;52.278;6.808;2023-03-31T02:28:36;10.05;;;4.25;;
68870;SDS011;55906;52.278;6.808;2023-03-31T02:31:09;11.47;;;4.43;;
68870;SDS011;55906;52.278;6.808;2023-03-31T02:33:47;12.77;;;4.85;;
68870;SDS011;55906;52.278;6.808;2023-03-31T02:36:14;8.55;;;4.30;;
68870;SDS011;55906;52.278;6.808;2023-03-31T02:38:42;8.43;;;4.13;;
68870;SDS011;55906;52.278;6.808;2023-03-31T02:41:14;12.40;;;4.38;;
68870;SDS011;55906;52.278;6.808;2023-03-31T02:43:41;10.90;;;4.73;;
68870;SDS011;55906;52.278;6.808;2023-03-31T02:46:07;8.43;;;4.53;;
68870;SDS011;55906;52.278;6.808;2023-03-31T02:48:36;9.65;;;4.90;;
68870;SDS011;55906;52.278;6.808;2023-03-31T02:57:20;7.80;;;4.30;;
68870;SDS011;55906;52.278;6.808;2023-03-31T03:00:02;9.80;;;4.05;;
68870;SDS011;55906;52.278;6.808;2023-03-31T03:02:40;7.22;;;3.33;;
68870;SDS011;55906;52.278;6.808;2023-03-31T03:05:20;8.88;;;3.67;;
68870;SDS011;55906;52.278;6.808;2023-03-31T03:07:55;7.68;;;3.10;;
68870;SDS011;55906;52.278;6.808;2023-03-31T03:10:33;7.67;;;3.50;;
68870;SDS011;55906;52.278;6.808;2023-03-31T03:13:10;5.63;;;3.10;;
68870;SDS011;55906;52.278;6.808;2023-03-31T03:15:44;9.20;;;3.80;;
68870;SDS011;55906;52.278;6.808;2023-03-31T03:18:13;6.72;;;3.42;;
68870;SDS011;55906;52.278;6.808;2023-03-31T03:20:41;6.75;;;3.95;;
68870;SDS011;55906;52.278;6.808;2023-03-31T03:23:12;9.33;;;4.57;;
68870;SDS011;55906;52.278;6.808;2023-03-31T03:25:39;8.43;;;3.65;;
68870;SDS011;55906;52.278;6.808;2023-03-31T03:28:06;7.32;;;3.58;;
68870;SDS011;55906;52.278;6.808;2023-03-31T03:30:34;6.97;;;4.20;;
68870;SDS011;55906;52.278;6.808;2023-03-31T03:33:01;7.00;;;3.70;;
68870;SDS011;55906;52.278;6.808;2023-03-31T03:35:30;10.17;;;4.40;;
68870;SDS011;55906;52.278;6.808;2023-03-31T03:37:56;7.50;;;4.25;;
68870;SDS011;55906;52.278;6.808;2023-03-31T03:40:23;7.20;;;4.43;;
68870;SDS011;55906;52.278;6.808;2023-03-31T03:42:50;10.13;;;4.10;;
68870;SDS011;55906;52.278;6.808;2023-03-31T03:45:16;11.23;;;4.38;;
68870;SDS011;55906;52.278;6.808;2023-03-31T03:47:44;10.57;;;4.47;;
68870;SDS011;55906;52.278;6.808;2023-03-31T03:50:11;11.25;;;5.00;;
68870;SDS011;55906;52.278;6.808;2023-03-31T03:52:38;6.95;;;4.88;;
68870;SDS011;55906;52.278;6.808;2023-03-31T03:55:05;11.38;;;4.53;;
68870;SDS011;55906;52.278;6.808;2023-03-31T03:57:32;10.25;;;4.80;;
68870;SDS011;55906;52.278;6.808;2023-03-31T03:59:58;9.40;;;4.67;;
68870;SDS011;55906;52.278;6.808;2023-03-31T04:02:25;8.40;;;4.95;;
68870;SDS011;55906;52.278;6.808;2023-03-31T04:04:53;10.55;;;5.07;;
68870;SDS011;55906;52.278;6.808;2023-03-31T04:07:20;8.40;;;4.72;;
68870;SDS011;55906;52.278;6.808;2023-03-31T04:09:47;9.10;;;4.70;;
68870;SDS011;55906;52.278;6.808;2023-03-31T04:12:13;14.03;;;5.13;;
68870;SDS011;55906;52.278;6.808;2023-03-31T04:14:40;8.50;;;4.80;;
68870;SDS011;55906;52.278;6.808;2023-03-31T04:17:07;14.98;;;4.57;;
68870;SDS011;55906;52.278;6.808;2023-03-31T04:19:34;13.40;;;4.75;;
68870;SDS011;55906;52.278;6.808;2023-03-31T04:22:03;8.68;;;5.07;;
68870;SDS011;55906;52.278;6.808;2023-03-31T04:24:30;10.07;;;4.63;;
68870;SDS011;55906;52.278;6.808;2023-03-31T04:26:57;12.77;;;5.13;;
68870;SDS011;55906;52.278;6.808;2023-03-31T04:29:26;8.93;;;4.97;;
68870;SDS011;55906;52.278;6.808;2023-03-31T04:31:53;10.02;;;4.63;;
68870;SDS011;55906;52.278;6.808;2023-03-31T04:34:23;10.25;;;4.82;;
68870;SDS011;55906;52.278;6.808;2023-03-31T04:36:58;8.97;;;5.17;;
68870;SDS011;55906;52.278;6.808;2023-03-31T04:39:28;13.38;;;4.90;;
68870;SDS011;55906;52.278;6.808;2023-03-31T04:41:56;9.02;;;4.95;;
68870;SDS011;55906;52.278;6.808;2023-03-31T04:44:23;10.10;;;5.07;;
68870;SDS011;55906;52.278;6.808;2023-03-31T04:46:50;15.90;;;4.90;;
68870;SDS011;55906;52.278;6.808;2023-03-31T04:49:16;10.37;;;4.30;;
68870;SDS011;55906;52.278;6.808;2023-03-31T04:51:43;11.23;;;4.88;;
68870;SDS011;55906;52.278;6.808;2023-03-31T04:54:10;8.85;;;4.13;;
68870;SDS011;55906;52.278;6.808;2023-03-31T04:56:37;9.93;;;4.20;;
68870;SDS011;55906;52.278;6.808;2023-03-31T04:59:04;11.88;;;4.60;;
68870;SDS011;55906;52.278;6.808;2023-03-31T05:01:32;9.83;;;4.33;;
68870;SDS011;55906;52.278;6.808;2023-03-31T05:04:00;10.18;;;4.68;;
68870;SDS011;55906;52.278;6.808;2023-03-31T05:06:27;11.73;;;4.57;;
68870;SDS011;55906;52.278;6.808;2023-03-31T05:08:54;11.10;;;4.60;;
68870;SDS011;55906;52.278;6.808;2023-03-31T05:11:20;9.38;;;4.57;;
68870;SDS011;55906;52.278;6.808;2023-03-31T05:13:48;9.57;;;4.57;;
68870;SDS011;55906;52.278;6.808;2023-03-31T05:16:15;14.55;;;4.30;;
68870;SDS011;55906;52.278;6.808;2023-03-31T05:18:42;12.57;;;4.35;;
68870;SDS011;55906;52.278;6.808;2023-03-31T05:21:11;8.85;;;4.10;;
68870;SDS011;55906;52.278;6.808;2023-03-31T05:23:39;13.15;;;5.35;;
68870;SDS011;55906;52.278;6.808;2023-03-31T05:26:06;11.83;;;4.93;;
68870;SDS011;55906;52.278;6.808;2023-03-31T05:28:33;12.13;;;4.68;;
68870;SDS011;55906;52.278;6.808;2023-03-31T05:31:01;12.05;;;4.65;;
68870;SDS011;55906;52.278;6.808;2023-03-31T05:33:29;11.77;;;5.13;;
68870;SDS011;55906;52.278;6.808;2023-03-31T05:35:57;11.57;;;4.50;;
68870;SDS011;55906;52.278;6.808;2023-03-31T05:38:27;13.20;;;4.43;;
68870;SDS011;55906;52.278;6.808;2023-03-31T05:40:55;15.73;;;4.53;;
68870;SDS011;55906;52.278;6.808;2023-03-31T05:43:22;12.60;;;4.85;;
68870;SDS011;55906;52.278;6.808;2023-03-31T05:45:48;11.85;;;4.80;;
68870;SDS011;55906;52.278;6.808;2023-03-31T05:48:16;11.13;;;4.85;;
68870;SDS011;55906;52.278;6.808;2023-03-31T05:50:43;10.67;;;4.40;;
68870;SDS011;55906;52.278;6.808;2023-03-31T05:53:10;10.52;;;4.43;;
68870;SDS011;55906;52.278;6.808;2023-03-31T05:55:36;10.45;;;4.75;;
68870;SDS011;55906;52.278;6.808;2023-03-31T05:58:03;9.40;;;4.25;;
68870;SDS011;55906;52.278;6.808;2023-03-31T06:00:30;14.15;;;4.80;;
68870;SDS011;55906;52.278;6.808;2023-03-31T06:02:57;9.60;;;4.30;;
68870;SDS011;55906;52.278;6.808;2023-03-31T06:05:25;13.38;;;4.57;;
68870;SDS011;55906;52.278;6.808;2023-03-31T06:07:55;13.55;;;3.92;;
68870;SDS011;55906;52.278;6.808;2023-03-31T06:10:22;11.55;;;3.92;;
68870;SDS011;55906;52.278;6.808;2023-03-31T06:12:48;10.85;;;4.65;;
68870;SDS011;55906;52.278;6.808;2023-03-31T06:15:15;11.77;;;4.50;;
68870;SDS011;55906;52.278;6.808;2023-03-31T06:17:42;12.65;;;4.70;;
68870;SDS011;55906;52.278;6.808;2023-03-31T06:20:09;14.75;;;4.63;;
68870;SDS011;55906;52.278;6.808;2023-03-31T06:22:37;12.70;;;4.53;;
68870;SDS011;55906;52.278;6.808;2023-03-31T06:25:04;11.13;;;4.05;;
68870;SDS011;55906;52.278;6.808;2023-03-31T06:27:31;10.20;;;3.83;;
68870;SDS011;55906;52.278;6.808;2023-03-31T06:29:58;10.23;;;3.90;;
68870;SDS011;55906;52.278;6.808;2023-03-31T06:32:24;8.57;;;4.05;;
68870;SDS011;55906;52.278;6.808;2023-03-31T06:34:51;10.10;;;3.95;;
68870;SDS011;55906;52.278;6.808;2023-03-31T06:37:18;11.73;;;4.40;;
68870;SDS011;55906;52.278;6.808;2023-03-31T06:39:46;8.37;;;4.40;;
68870;SDS011;55906;52.278;6.808;2023-03-31T06:42:13;12.95;;;4.57;;
68870;SDS011;55906;52.278;6.808;2023-03-31T06:44:40;11.77;;;4.60;;
68870;SDS011;55906;52.278;6.808;2023-03-31T06:47:06;14.07;;;5.68;;
68870;SDS011;55906;52.278;6.808;2023-03-31T06:49:33;12.70;;;5.20;;
68870;SDS011;55906;52.278;6.808;2023-03-31T06:52:00;12.63;;;4.40;;
68870;SDS011;55906;52.278;6.808;2023-03-31T06:54:28;9.50;;;4.97;;
68870;SDS011;55906;52.278;6.808;2023-03-31T06:56:56;16.20;;;5.25;;
68870;SDS011;55906;52.278;6.808;2023-03-31T06:59:22;12.30;;;5.25;;
68870;SDS011;55906;52.278;6.808;2023-03-31T07:01:49;12.32;;;5.55;;
68870;SDS011;55906;52.278;6.808;2023-03-31T07:04:15;15.10;;;5.80;;
68870;SDS011;55906;52.278;6.808;2023-03-31T07:06:42;13.48;;;4.93;;
68870;SDS011;55906;52.278;6.808;2023-03-31T07:09:09;13.80;;;5.00;;
68870;SDS011;55906;52.278;6.808;2023-03-31T07:11:35;11.38;;;4.97;;
68870;SDS011;55906;52.278;6.808;2023-03-31T07:14:03;12.98;;;5.82;;
68870;SDS011;55906;52.278;6.808;2023-03-31T07:16:30;12.90;;;4.87;;
68870;SDS011;55906;52.278;6.808;2023-03-31T07:18:56;9.32;;;4.82;;
68870;SDS011;55906;52.278;6.808;2023-03-31T07:21:24;13.85;;;5.10;;
68870;SDS011;55906;52.278;6.808;2023-03-31T07:23:50;12.02;;;4.55;;
68870;SDS011;55906;52.278;6.808;2023-03-31T07:26:17;9.85;;;5.45;;
68870;SDS011;55906;52.278;6.808;2023-03-31T07:28:44;11.17;;;4.70;;
68870;SDS011;55906;52.278;6.808;2023-03-31T07:31:12;12.18;;;5.30;;
68870;SDS011;55906;52.278;6.808;2023-03-31T07:33:39;12.10;;;4.43;;
68870;SDS011;55906;52.278;6.808;2023-03-31T07:36:07;10.05;;;4.45;;
68870;SDS011;55906;52.278;6.808;2023-03-31T07:38:34;10.98;;;4.35;;
68870;SDS011;55906;52.278;6.808;2023-03-31T07:41:01;12.93;;;4.40;;
68870;SDS011;55906;52.278;6.808;2023-03-31T07:43:28;12.68;;;4.07;;
68870;SDS011;55906;52.278;6.808;2023-03-31T07:45:54;12.45;;;4.53;;
68870;SDS011;55906;52.278;6.808;2023-03-31T07:48:22;7.93;;;4.40;;
68870;SDS011;55906;52.278;6.808;2023-03-31T07:50:52;10.30;;;3.92;;
68870;SDS011;55906;52.278;6.808;2023-03-31T07:53:19;9.67;;;4.47;;
68870;SDS011;55906;52.278;6.808;2023-03-31T07:55:46;8.93;;;3.95;;
68870;SDS011;55906;52.278;6.808;2023-03-31T07:58:12;10.07;;;4.38;;
68870;SDS011;55906;52.278;6.808;2023-03-31T08:00:39;8.80;;;3.58;;
68870;SDS011;55906;52.278;6.808;2023-03-31T08:03:06;8.88;;;3.97;;
68870;SDS011;55906;52.278;6.808;2023-03-31T08:05:34;7.10;;;4.33;;
68870;SDS011;55906;52.278;6.808;2023-03-31T08:08:00;8.85;;;3.63;;
68870;SDS011;55906;52.278;6.808;2023-03-31T08:10:27;7.10;;;3.80;;
68870;SDS011;55906;52.278;6.808;2023-03-31T08:12:54;6.93;;;3.47;;
68870;SDS011;55906;52.278;6.808;2023-03-31T08:15:21;10.73;;;3.58;;
68870;SDS011;55906;52.278;6.808;2023-03-31T08:17:48;10.03;;;3.73;;
68870;SDS011;55906;52.278;6.808;2023-03-31T08:20:15;6.32;;;2.92;;
68870;SDS011;55906;52.278;6.808;2023-03-31T08:22:43;7.30;;;3.33;;
68870;SDS011;55906;52.278;6.808;2023-03-31T08:25:10;6.70;;;3.42;;
68870;SDS011;55906;52.278;6.808;2023-03-31T08:27:37;6.95;;;3.10;;
68870;SDS011;55906;52.278;6.808;2023-03-31T08:30:06;7.77;;;3.70;;
68870;SDS011;55906;52.278;6.808;2023-03-31T08:32:34;7.57;;;3.50;;
68870;SDS011;55906;52.278;6.808;2023-03-31T08:35:02;8.25;;;3.40;;
68870;SDS011;55906;52.278;6.808;2023-03-31T08:37:29;7.50;;;3.05;;
68870;SDS011;55906;52.278;6.808;2023-03-31T08:39:58;5.85;;;2.92;;
68870;SDS011;55906;52.278;6.808;2023-03-31T08:42:28;6.00;;;3.10;;
68870;SDS011;55906;52.278;6.808;2023-03-31T08:45:02;5.65;;;3.03;;
68870;SDS011;55906;52.278;6.808;2023-03-31T08:47:36;5.60;;;3.20;;
68870;SDS011;55906;52.278;6.808;2023-03-31T08:50:04;6.32;;;3.50;;
68870;SDS011;55906;52.278;6.808;2023-03-31T08:52:38;8.10;;;3.10;;
68870;SDS011;55906;52.278;6.808;2023-03-31T08:55:11;5.10;;;3.20;;
68870;SDS011;55906;52.278;6.808;2023-03-31T08:57:45;8.30;;;3.17;;
68870;SDS011;55906;52.278;6.808;2023-03-31T09:00:21;9.00;;;3.58;;
68870;SDS011;55906;52.278;6.808;2023-03-31T09:02:49;6.28;;;3.45;;
68870;SDS011;55906;52.278;6.808;2023-03-31T09:08:20;6.57;;;3.57;;
68870;SDS011;55906;52.278;6.808;2023-03-31T09:11:01;5.97;;;3.42;;
68870;SDS011;55906;52.278;6.808;2023-03-31T09:16:27;6.72;;;3.53;;
68870;SDS011;55906;52.278;6.808;2023-03-31T09:19:00;6.65;;;3.25;;
68870;SDS011;55906;52.278;6.808;2023-03-31T09:21:28;7.47;;;3.30;;
68870;SDS011;55906;52.278;6.808;2023-03-31T09:23:58;7.45;;;3.38;;
68870;SDS011;55906;52.278;6.808;2023-03-31T09:26:35;9.50;;;3.53;;
68870;SDS011;55906;52.278;6.808;2023-03-31T09:29:09;7.07;;;3.60;;
68870;SDS011;55906;52.278;6.808;2023-03-31T09:31:43;5.75;;;3.20;;
68870;SDS011;55906;52.278;6.808;2023-03-31T09:34:14;5.50;;;3.20;;
68870;SDS011;55906;52.278;6.808;2023-03-31T09:36:42;5.03;;;2.75;;
68870;SDS011;55906;52.278;6.808;2023-03-31T09:39:10;5.93;;;2.50;;
68870;SDS011;55906;52.278;6.808;2023-03-31T09:41:42;5.57;;;3.78;;
68870;SDS011;55906;52.278;6.808;2023-03-31T09:44:21;7.43;;;3.42;;
68870;SDS011;55906;52.278;6.808;2023-03-31T09:46:51;5.73;;;3.33;;
68870;SDS011;55906;52.278;6.808;2023-03-31T09:49:19;6.78;;;2.85;;
68870;SDS011;55906;52.278;6.808;2023-03-31T09:51:48;6.65;;;3.58;;
68870;SDS011;55906;52.278;6.808;2023-03-31T09:54:25;6.03;;;3.50;;
68870;SDS011;55906;52.278;6.808;2023-03-31T09:56:58;6.18;;;3.10;;
68870;SDS011;55906;52.278;6.808;2023-03-31T09:59:29;7.47;;;3.83;;
68870;SDS011;55906;52.278;6.808;2023-03-31T10:01:57;10.05;;;3.95;;
68870;SDS011;55906;52.278;6.808;2023-03-31T10:04:27;6.78;;;3.33;;
68870;SDS011;55906;52.278;6.808;2023-03-31T10:06:57;5.78;;;3.20;;
68870;SDS011;55906;52.278;6.808;2023-03-31T10:09:26;8.25;;;3.85;;
68870;SDS011;55906;52.278;6.808;2023-03-31T10:11:55;6.50;;;3.53;;
68870;SDS011;55906;52.278;6.808;2023-03-31T10:14:25;9.25;;;3.80;;
68870;SDS011;55906;52.278;6.808;2023-03-31T10:16:57;5.32;;;3.50;;
68870;SDS011;55906;52.278;6.808;2023-03-31T10:19:30;8.93;;;3.70;;
68870;SDS011;55906;52.278;6.808;2023-03-31T10:21:59;12.75;;;4.10;;
68870;SDS011;55906;52.278;6.808;2023-03-31T10:24:35;7.50;;;3.50;;
68870;SDS011;55906;52.278;6.808;2023-03-31T10:27:03;10.50;;;3.70;;
68870;SDS011;55906;52.278;6.808;2023-03-31T10:29:33;11.80;;;4.05;;
68870;SDS011;55906;52.278;6.808;2023-03-31T10:32:03;11.18;;;3.92;;
68870;SDS011;55906;52.278;6.808;2023-03-31T10:34:34;10.23;;;3.90;;
68870;SDS011;55906;52.278;6.808;2023-03-31T10:37:06;14.87;;;3.93;;
68870;SDS011;55906;52.278;6.808;2023-03-31T10:39:37;11.32;;;3.92;;
68870;SDS011;55906;52.278;6.808;2023-03-31T10:42:04;8.13;;;3.72;;
68870;SDS011;55906;52.278;6.808;2023-03-31T10:44:32;9.80;;;3.70;;
68870;SDS011;55906;52.278;6.808;2023-03-31T10:47:05;12.07;;;3.47;;
68870;SDS011;55906;52.278;6.808;2023-03-31T10:49:43;10.37;;;3.77;;
68870;SDS011;55906;52.278;6.808;2023-03-31T10:52:14;11.48;;;3.60;;
68870;SDS011;55906;52.278;6.808;2023-03-31T10:54:46;12.30;;;4.18;;
68870;SDS011;55906;52.278;6.808;2023-03-31T10:57:15;11.05;;;3.85;;
68870;SDS011;55906;52.278;6.808;2023-03-31T10:59:48;11.05;;;3.38;;
68870;SDS011;55906;52.278;6.808;2023-03-31T11:05:29;9.73;;;3.50;;
68870;SDS011;55906;52.278;6.808;2023-03-31T11:08:09;10.82;;;3.95;;
68870;SDS011;55906;52.278;6.808;2023-03-31T11:10:50;12.70;;;3.92;;
68870;SDS011;55906;52.278;6.808;2023-03-31T11:13:31;14.00;;;3.60;;
68870;SDS011;55906;52.278;6.808;2023-03-31T11:16:10;9.07;;;3.50;;
68870;SDS011;55906;52.278;6.808;2023-03-31T11:18:50;8.63;;;3.38;;
68870;SDS011;55906;52.278;6.808;2023-03-31T11:21:30;11.57;;;3.42;;
68870;SDS011;55906;52.278;6.808;2023-03-31T11:24:06;7.45;;;3.80;;
68870;SDS011;55906;52.278;6.808;2023-03-31T11:26:41;13.13;;;3.63;;
68870;SDS011;55906;52.278;6.808;2023-03-31T11:29:21;9.57;;;3.70;;
68870;SDS011;55906;52.278;6.808;2023-03-31T11:32:01;8.45;;;3.83;;
68870;SDS011;55906;52.278;6.808;2023-03-31T11:37:57;12.23;;;3.60;;
68870;SDS011;55906;52.278;6.808;2023-03-31T11:40:38;8.27;;;3.78;;
68870;SDS011;55906;52.278;6.808;2023-03-31T11:43:16;12.13;;;3.63;;
68870;SDS011;55906;52.278;6.808;2023-03-31T11:45:50;13.13;;;3.95;;
68870;SDS011;55906;52.278;6.808;2023-03-31T11:48:22;12.23;;;4.68;;
68870;SDS011;55906;52.278;6.808;2023-03-31T11:50:56;12.75;;;3.85;;
68870;SDS011;55906;52.278;6.808;2023-03-31T11:53:26;12.75;;;4.05;;
68870;SDS011;55906;52.278;6.808;2023-03-31T11:55:58;12.43;;;3.80;;
68870;SDS011;55906;52.278;6.808;2023-03-31T11:58:27;9.60;;;3.30;;
68870;SDS011;55906;52.278;6.808;2023-03-31T12:00:57;9.90;;;3.63;;
68870;SDS011;55906;52.278;6.808;2023-03-31T12:03:32;9.13;;;3.15;;
68870;SDS011;55906;52.278;6.808;2023-03-31T12:06:04;10.35;;;3.22;;
68870;SDS011;55906;52.278;6.808;2023-03-31T12:08:42;10.37;;;3.27;;
68870;SDS011;55906;52.278;6.808;2023-03-31T12:11:17;8.73;;;3.10;;
68870;SDS011;55906;52.278;6.808;2023-03-31T12:13:51;13.23;;;3.47;;
68870;SDS011;55906;52.278;6.808;2023-03-31T12:16:25;9.05;;;3.22;;
68870;SDS011;55906;52.278;6.808;2023-03-31T12:19:04;9.60;;;3.10;;
68870;SDS011;55906;52.278;6.808;2023-03-31T12:21:34;10.10;;;3.43;;
68870;SDS011;55906;52.278;6.808;2023-03-31T12:24:04;8.07;;;2.90;;
68870;SDS011;55906;52.278;6.808;2023-03-31T12:26:33;9.90;;;3.67;;
68870;SDS011;55906;52.278;6.808;2023-03-31T12:29:06;10.63;;;3.70;;
68870;SDS011;55906;52.278;6.808;2023-03-31T12:31:45;12.10;;;3.70;;
68870;SDS011;55906;52.278;6.808;2023-03-31T12:34:15;9.73;;;3.43;;
68870;SDS011;55906;52.278;6.808;2023-03-31T12:36:48;11.93;;;3.90;;
68870;SDS011;55906;52.278;6.808;2023-03-31T12:39:30;12.15;;;3.38;;
68870;SDS011;55906;52.278;6.808;2023-03-31T12:45:04;11.43;;;3.38;;
68870;SDS011;55906;52.278;6.808;2023-03-31T12:47:40;8.47;;;2.97;;
68870;SDS011;55906;52.278;6.808;2023-03-31T12:50:21;8.82;;;3.05;;
68870;SDS011;55906;52.278;6.808;2023-03-31T12:53:02;10.57;;;3.53;;
68870;SDS011;55906;52.278;6.808;2023-03-31T12:55:38;12.93;;;3.17;;
68870;SDS011;55906;52.278;6.808;2023-03-31T13:01:15;7.60;;;3.03;;
68870;SDS011;55906;52.278;6.808;2023-03-31T13:03:50;9.52;;;3.00;;
68870;SDS011;55906;52.278;6.808;2023-03-31T13:12:14;8.55;;;2.85;;
68870;SDS011;55906;52.278;6.808;2023-03-31T13:14:44;9.63;;;3.27;;
68870;SDS011;55906;52.278;6.808;2023-03-31T13:17:17;5.85;;;2.60;;
68870;SDS011;55906;52.278;6.808;2023-03-31T13:19:48;7.57;;;3.20;;
68870;SDS011;55906;52.278;6.808;2023-03-31T13:22:29;8.93;;;3.25;;
68870;SDS011;55906;52.278;6.808;2023-03-31T13:28:14;7.17;;;3.13;;
68870;SDS011;55906;52.278;6.808;2023-03-31T13:30:50;8.68;;;2.97;;
68870;SDS011;55906;52.278;6.808;2023-03-31T13:33:26;9.88;;;2.92;;
68870;SDS011;55906;52.278;6.808;2023-03-31T13:39:34;11.20;;;3.35;;
68870;SDS011;55906;52.278;6.808;2023-03-31T13:45:25;11.63;;;3.20;;
68870;SDS011;55906;52.278;6.808;2023-03-31T13:48:13;8.82;;;3.67;;
68870;SDS011;55906;52.278;6.808;2023-03-31T13:51:17;7.88;;;2.70;;
68870;SDS011;55906;52.278;6.808;2023-03-31T13:57:01;10.37;;;3.17;;
68870;SDS011;55906;52.278;6.808;2023-03-31T14:00:00;8.60;;;2.80;;
68870;SDS011;55906;52.278;6.808;2023-03-31T14:02:49;7.57;;;3.30;;
68870;SDS011;55906;52.278;6.808;2023-03-31T14:05:30;12.65;;;3.42;;
68870;SDS011;55906;52.278;6.808;2023-03-31T14:08:04;10.02;;;3.20;;
68870;SDS011;55906;52.278;6.808;2023-03-31T14:10:36;10.10;;;3.27;;
68870;SDS011;55906;52.278;6.808;2023-03-31T14:13:07;9.43;;;3.08;;
68870;SDS011;55906;52.278;6.808;2023-03-31T14:15:37;9.73;;;3.35;;
68870;SDS011;55906;52.278;6.808;2023-03-31T14:18:08;11.45;;;3.47;;
68870;SDS011;55906;52.278;6.808;2023-03-31T14:20:40;10.38;;;3.53;;
68870;SDS011;55906;52.278;6.808;2023-03-31T14:23:21;10.53;;;3.07;;
68870;SDS011;55906;52.278;6.808;2023-03-31T14:26:01;11.20;;;3.30;;
68870;SDS011;55906;52.278;6.808;2023-03-31T14:28:37;8.43;;;3.00;;
68870;SDS011;55906;52.278;6.808;2023-03-31T14:31:18;11.80;;;3.33;;
68870;SDS011;55906;52.278;6.808;2023-03-31T14:33:52;8.13;;;3.08;;
68870;SDS011;55906;52.278;6.808;2023-03-31T14:36:34;9.50;;;3.57;;
68870;SDS011;55906;52.278;6.808;2023-03-31T14:39:07;10.10;;;3.50;;
68870;SDS011;55906;52.278;6.808;2023-03-31T14:41:36;8.48;;;3.70;;
68870;SDS011;55906;52.278;6.808;2023-03-31T14:44:05;8.57;;;3.40;;
68870;SDS011;55906;52.278;6.808;2023-03-31T14:46:35;7.95;;;3.60;;
68870;SDS011;55906;52.278;6.808;2023-03-31T14:49:05;11.13;;;3.50;;
68870;SDS011;55906;52.278;6.808;2023-03-31T14:51:42;10.80;;;3.55;;
68870;SDS011;55906;52.278;6.808;2023-03-31T14:54:13;7.75;;;3.13;;
68870;SDS011;55906;52.278;6.808;2023-03-31T14:56:41;14.30;;;3.33;;
68870;SDS011;55906;52.278;6.808;2023-03-31T14:59:12;15.40;;;3.78;;
68870;SDS011;55906;52.278;6.808;2023-03-31T15:01:43;13.63;;;3.90;;
68870;SDS011;55906;52.278;6.808;2023-03-31T15:04:13;10.18;;;3.38;;
68870;SDS011;55906;52.278;6.808;2023-03-31T15:06:44;9.55;;;3.40;;
68870;SDS011;55906;52.278;6.808;2023-03-31T15:09:14;9.18;;;3.15;;
68870;SDS011;55906;52.278;6.808;2023-03-31T15:11:46;10.13;;;3.25;;
68870;SDS011;55906;52.278;6.808;2023-03-31T15:14:20;8.20;;;3.00;;
68870;SDS011;55906;52.278;6.808;2023-03-31T15:16:48;9.75;;;3.40;;
68870;SDS011;55906;52.278;6.808;2023-03-31T15:19:16;8.40;;;3.78;;
68870;SDS011;55906;52.278;6.808;2023-03-31T15:21:44;9.10;;;3.28;;
68870;SDS011;55906;52.278;6.808;2023-03-31T15:24:13;8.63;;;3.00;;
68870;SDS011;55906;52.278;6.808;2023-03-31T15:26:41;7.40;;;3.63;;
68870;SDS011;55906;52.278;6.808;2023-03-31T15:29:12;6.05;;;2.72;;
68870;SDS011;55906;52.278;6.808;2023-03-31T15:31:46;7.25;;;2.95;;
68870;SDS011;55906;52.278;6.808;2023-03-31T15:34:13;12.85;;;3.67;;
68870;SDS011;55906;52.278;6.808;2023-03-31T15:36:44;8.75;;;3.25;;
68870;SDS011;55906;52.278;6.808;2023-03-31T15:39:11;6.20;;;2.97;;
68870;SDS011;55906;52.278;6.808;2023-03-31T15:41:40;9.43;;;2.90;;
68870;SDS011;55906;52.278;6.808;2023-03-31T15:44:20;8.88;;;3.70;;
68870;SDS011;55906;52.278;6.808;2023-03-31T15:46:58;7.32;;;3.20;;
68870;SDS011;55906;52.278;6.808;2023-03-31T15:49:26;6.65;;;2.90;;
68870;SDS011;55906;52.278;6.808;2023-03-31T15:51:53;6.00;;;3.33;;
68870;SDS011;55906;52.278;6.808;2023-03-31T15:54:28;7.10;;;3.20;;
68870;SDS011;55906;52.278;6.808;2023-03-31T15:57:00;7.15;;;3.15;;